Historyczne dane pomiarowe

Dodano dane terminowe – wersja testowa.

Dane z okresu 1951-2019

Wersja bazy: 1.34 [2019-03-16, lista zmian], aktualizacja planowana na 2019-04-15

Dane meteo z obszaru Polski uzyskane na podstawie danych udostępnionych przez Instytut Meteorologii i Gospodarki Wodnej – Państwowy Instytut Badawczy.

 

Wybierz Datę:    

       

TemperaturaWilgotnośćWiatrCiśnienieOpadyŚniegCzas trwania zjawisk
 Stacja t tx tn tng RH VA  wxwx mslp ppp RRR   cm mm wxwxwxwxwxwxwx
1956-10-10 4.3 10.8 -0.4 -2.9 81.0- 0.3 0.3---- 0.0------------
1956-10-09 6.3 8.8 2.9 2.1 89.3- 8.0 2.0---- 1.5------------
1956-10-08 5.5 9.0 0.2 -2.1 80.0- 6.7 2.3---- 0.0------------
1956-10-07 5.8 10.0 3.9 4.6 79.5- 4.7 2.3---- 0.2------------
1956-10-06 6.3 9.8 4.8 3.4 84.5- 5.0 2.7---- 0.6------------
1956-10-05 9.3 12.3 7.4 5.4 84.0- 4.3 1.0---- 0.0------------
1956-10-04 10.9 15.4 6.6 4.0 83.5- 6.0 1.0---- 3.7------------
1956-10-03 11.2 16.4 8.4 12.4 91.3- 5.3 1.7---- 0.4------------
1956-10-02 16.8 24.1 11.4 8.0 82.5- 4.7 1.7---- 3.4------------
1956-10-01 15.4 23.4 8.8 6.0 83.3- 3.0 1.3---- 0.0------------
1956-09-30 13.0 18.4 8.8 7.6 78.5- 4.0 2.3---- 0.0------------
1956-09-29 14.8 16.5 14.0 14.2 71.5- 3.7 2.7---- 0.0------------
1956-09-28 16.3 19.4 13.4 11.0 56.8- 5.7 4.7---- 0.0------------
1956-09-27 16.6 22.3 12.2 10.0 77.3- 4.0 2.0---- 0.0------------
1956-09-26 16.9 22.9 9.2 6.4 61.0- 0.0 2.3---- 0.0------------
1956-09-25 13.8 21.3 5.1 4.0 70.3- 0.0 1.7---- 0.0------------
1956-09-24 11.7 16.9 5.7 4.0 74.5- 0.0 2.7---- 0.0------------
1956-09-23 13.8 19.1 8.4 5.4 72.8- 0.0 4.0---- 0.0------------
1956-09-22 12.9 19.7 5.3 3.1 71.0- 0.0 2.7---- 0.0------------
1956-09-21 11.6 18.7 3.3 2.6 75.0- 0.0 0.7---- 0.0------------
1956-09-20 11.4 17.5 5.3 2.7 81.5- 0.7 0.3---- 0.0------------
1956-09-19 8.9 16.9 1.6 -0.5 80.3- 1.3 0.7---- 0.0------------
1956-09-18 8.0 14.9 2.9 1.1 77.5- 2.3 1.0---- 0.0------------
1956-09-17 9.0 13.7 6.8 8.6 88.5- 3.7 1.3---- 5.9------------
1956-09-16 11.3 15.1 4.8 2.1 73.8- 5.3 3.3---- 0.8------------
1956-09-15 9.9 16.1 6.8 6.2 78.5- 4.0 2.7---- 0.0------------
1956-09-14 11.2 17.9 4.5 4.0 74.8- 2.3 0.7---- 0.0------------
1956-09-13 9.0 14.5 8.2 7.0 88.3- 6.0 2.7---- 3.8------------
1956-09-12 10.0 14.6 8.8 12.0 90.3- 8.0 4.0---- 2.8------------
1956-09-11 15.0 17.9 10.9 10.2 88.8- 7.3 2.0---- 7.0------------
1956-09-10 14.6 18.5 8.4 6.5 84.3- 7.3 2.7---- 15.7------------
1956-09-09 14.1 18.7 9.8 9.0 86.0- 4.7 1.3---- 0.0------------
1956-09-08 15.7 20.9 9.9 7.8 77.5- 3.7 1.7---- 0.0------------
1956-09-07 16.0 22.3 12.8 10.8 80.0- 5.0 0.7---- 4.5------------
1956-09-06 16.5 22.9 8.8 7.5 73.3- 1.7 2.3---- 0.0------------
1956-09-05 14.2 20.7 8.6 6.0 81.8- 0.3 1.0---- 0.0------------
1956-09-04 14.4 21.4 13.4 12.6 80.0- 7.3 2.3---- 0.0------------
1956-09-03 21.3 27.8 12.9 11.0 64.3- 1.3 2.7---- 4.7------------
1956-09-02 16.8 24.4 6.2 5.0 72.5- 2.3 1.7---- 0.0------------
1956-09-01 15.5 20.1 6.4 5.6 75.5- 4.7 1.7---- 0.0------------
1956-08-31 14.5 18.3 8.4 7.5 73.3- 3.3 1.7---- 0.0------------
1956-08-30 12.8 15.6 11.8 12.5 92.5- 7.3 1.3---- 21.0------------
1956-08-29 16.2 20.9 11.8 9.5 74.8- 3.3 1.7---- 9.2------------
1956-08-28 19.1 23.9 15.6 15.0 68.3- 3.3 2.0---- 0.0------------
1956-08-27 18.4 25.3 10.4 7.5 69.3- 3.3 2.0---- 1.4------------
1956-08-26 16.4 21.5 8.4 6.0 63.5- 2.3 4.0---- 0.0------------
1956-08-25 13.3 20.1 7.8 6.0 83.3- 4.3 4.3---- 0.3------------
1956-08-24 14.1 18.3 9.8 9.0 70.3- 4.7 2.0---- 0.0------------
1956-08-23 12.9 14.9 11.4 10.8 88.3- 8.0 2.0---- 6.1------------
1956-08-22 14.8 20.1 9.6 6.6 74.8- 3.3 1.0---- 0.2------------
1956-08-21 15.3 20.1 12.8 10.4 77.8- 4.3 1.3---- 0.0------------
1956-08-20 17.9 22.9 12.9 11.0 72.0- 2.0 2.7---- 0.0------------
1956-08-19 19.5 24.4 14.6 12.6 63.5- 3.7 4.0---- 0.0------------
1956-08-18 18.5 23.1 12.0 9.8 75.3- 5.0 2.0---- 0.0------------
1956-08-17 17.8 21.9 10.9 9.8 82.8- 7.3 2.7---- 3.0------------
1956-08-16 13.0 15.5 9.8 7.5 91.8- 8.0 2.7---- 4.7------------
1956-08-15 14.1 19.3 9.9 7.4 70.3- 5.3 4.7---- 0.0------------
1956-08-14 17.0 23.3 12.9 10.0 77.5- 6.0 2.0---- 0.0------------
1956-08-13 15.6 20.9 9.9 7.8 73.0- 3.3 1.7---- 0.0------------
1956-08-12 14.4 18.5 13.2 13.0 86.0- 8.0 1.3---- 0.4------------
183.7 ms

 

Źródłem pochodzenia danych jest Instytut Meteorologii i Gospodarki Wodnej – Państwowy Instytut Badawczy. Dane Instytutu Meteorologii i Gospodarki Wodnej – Państwowego Instytutu Badawczego zostały przetworzone.

Dane źródłowe można odnaleźć na stronie https://dane.imgw.pl